createdAt,value
2018-11-27T00:00:22.734Z,13.80
2018-11-27T00:02:50.699Z,14.47
2018-11-27T00:05:18.726Z,13.03
2018-11-27T00:07:46.719Z,14.30
2018-11-27T00:10:14.678Z,15.58
2018-11-27T00:12:42.663Z,15.95
2018-11-27T00:15:12.187Z,17.15
2018-11-27T00:17:40.172Z,16.95
2018-11-27T00:20:09.509Z,16.00
2018-11-27T00:22:37.851Z,17.12
2018-11-27T00:25:08.973Z,16.75
2018-11-27T00:27:37.009Z,18.42
2018-11-27T00:30:06.861Z,17.65
2018-11-27T00:32:34.883Z,18.27
2018-11-27T00:35:02.882Z,17.53
2018-11-27T00:37:30.856Z,18.90
2018-11-27T00:39:59.226Z,19.32
2018-11-27T00:42:27.177Z,18.92
2018-11-27T00:44:55.174Z,19.17
2018-11-27T00:47:23.166Z,18.87
2018-11-27T00:49:51.529Z,19.67
2018-11-27T00:52:19.541Z,20.55
2018-11-27T00:54:47.574Z,20.10
2018-11-27T00:57:15.578Z,20.23
2018-11-27T00:59:43.586Z,19.95
2018-11-27T01:02:11.563Z,19.82
2018-11-27T01:04:40.375Z,18.37
2018-11-27T01:07:08.408Z,19.70
2018-11-27T01:09:36.347Z,18.23
2018-11-27T01:12:04.383Z,18.98
2018-11-27T01:14:32.348Z,19.10
2018-11-27T01:17:00.347Z,17.50
2018-11-27T01:19:28.323Z,17.65
2018-11-27T01:21:56.315Z,19.50
2018-11-27T01:24:24.291Z,19.40
2018-11-27T01:26:52.275Z,20.70
2018-11-27T01:29:20.252Z,18.77
2018-11-27T01:31:48.227Z,18.60
2018-11-27T01:34:16.224Z,19.80
2018-11-27T01:36:44.208Z,18.77
2018-11-27T01:39:12.182Z,19.00
2018-11-27T01:41:40.186Z,18.92
2018-11-27T01:44:08.153Z,18.50
2018-11-27T01:46:36.193Z,19.10
2018-11-27T01:49:04.185Z,19.52
2018-11-27T01:51:32.169Z,19.80
2018-11-27T01:54:00.126Z,18.67
2018-11-27T01:56:28.096Z,18.50
2018-11-27T01:58:56.173Z,20.08
2018-11-27T02:01:24.143Z,19.75
2018-11-27T02:03:52.110Z,18.32
2018-11-27T02:06:20.071Z,19.50
2018-11-27T02:08:48.054Z,18.77
2018-11-27T02:11:16.010Z,18.90
2018-11-27T02:13:43.981Z,17.90
2018-11-27T02:16:11.946Z,18.40
2018-11-27T02:18:39.937Z,19.67
2018-11-27T02:21:07.929Z,18.57
2018-11-27T02:23:35.893Z,19.05
2018-11-27T02:26:03.936Z,21.02
2018-11-27T02:28:31.912Z,19.52
2018-11-27T02:30:59.956Z,18.98
2018-11-27T02:33:27.942Z,19.00
2018-11-27T02:35:56.502Z,18.35
2018-11-27T02:38:24.503Z,18.15
2018-11-27T02:40:52.482Z,19.42
2018-11-27T02:43:20.477Z,19.80
2018-11-27T02:45:48.427Z,18.50
2018-11-27T02:48:16.411Z,19.87
2018-11-27T02:50:44.380Z,20.30
2018-11-27T02:53:12.412Z,19.23
2018-11-27T02:55:40.418Z,19.85
2018-11-27T02:58:08.387Z,19.87
2018-11-27T03:00:36.514Z,18.52
2018-11-27T03:03:04.893Z,19.25
2018-11-27T03:05:35.019Z,19.07
2018-11-27T03:08:03.071Z,20.95
2018-11-27T03:10:31.147Z,20.30
2018-11-27T03:12:59.104Z,19.95
2018-11-27T03:15:27.087Z,19.57
2018-11-27T03:17:55.285Z,19.25
2018-11-27T03:20:23.254Z,20.05
2018-11-27T03:22:51.796Z,20.62
2018-11-27T03:25:20.805Z,19.85
2018-11-27T03:27:49.796Z,19.73
2018-11-27T03:30:19.787Z,21.85
2018-11-27T03:32:47.739Z,20.00
2018-11-27T03:35:16.702Z,20.30
2018-11-27T03:37:45.155Z,19.77
2018-11-27T03:40:14.583Z,19.90
2018-11-27T03:42:42.573Z,20.55
2018-11-27T03:45:12.755Z,20.40
2018-11-27T03:47:40.728Z,21.25
2018-11-27T03:50:39.917Z,20.20
2018-11-27T03:53:07.881Z,19.98
2018-11-27T03:55:36.474Z,20.57
2018-11-27T03:58:04.562Z,20.95
2018-11-27T04:00:32.532Z,20.70
2018-11-27T04:03:06.927Z,21.20
2018-11-27T04:05:35.023Z,21.55
2018-11-27T04:08:03.670Z,20.95
2018-11-27T04:10:31.677Z,20.85
2018-11-27T04:12:59.622Z,21.42
2018-11-27T04:20:39.829Z,19.92
2018-11-27T04:23:07.768Z,21.52
2018-11-27T04:25:35.735Z,21.57
2018-11-27T04:28:04.674Z,21.40
2018-11-27T04:30:32.594Z,21.62
2018-11-27T04:33:00.557Z,21.00
2018-11-27T04:35:28.535Z,22.50
2018-11-27T04:37:56.500Z,21.90
2018-11-27T04:40:24.478Z,21.52
2018-11-27T04:42:53.119Z,23.95
2018-11-27T04:45:22.670Z,21.65
2018-11-27T04:47:50.638Z,21.17
2018-11-27T04:50:19.117Z,22.50
2018-11-27T04:52:47.068Z,22.55
2018-11-27T04:55:15.874Z,22.85
2018-11-27T04:57:44.519Z,23.22
2018-11-27T05:00:14.663Z,21.70
2018-11-27T05:02:42.632Z,22.55
2018-11-27T05:05:10.754Z,21.50
2018-11-27T05:07:38.790Z,22.85
2018-11-27T05:10:12.928Z,22.27
2018-11-27T05:12:41.278Z,21.90
2018-11-27T05:15:13.543Z,22.65
2018-11-27T05:17:41.820Z,22.07
2018-11-27T05:20:10.808Z,21.65
2018-11-27T05:22:38.769Z,22.75
2018-11-27T05:25:08.701Z,22.10
2018-11-27T05:27:36.679Z,22.17
2018-11-27T05:30:09.679Z,23.50
2018-11-27T05:32:37.679Z,23.12
2018-11-27T05:35:06.812Z,23.22
2018-11-27T05:37:34.803Z,23.27
2018-11-27T05:40:04.097Z,22.80
2018-11-27T05:42:32.242Z,23.62
2018-11-27T05:45:00.290Z,23.87
2018-11-27T05:47:28.258Z,23.15
2018-11-27T05:49:56.279Z,23.57
2018-11-27T05:52:24.284Z,23.07
2018-11-27T05:54:52.291Z,24.37
2018-11-27T05:57:21.194Z,23.90
2018-11-27T05:59:48.306Z,22.55
2018-11-27T06:02:16.387Z,23.30
2018-11-27T06:04:44.321Z,22.62
2018-11-27T06:07:12.303Z,24.60
2018-11-27T06:09:40.283Z,22.87
2018-11-27T06:12:08.248Z,22.58
2018-11-27T06:14:36.201Z,23.55
2018-11-27T06:17:04.186Z,23.15
2018-11-27T06:19:32.148Z,23.62
2018-11-27T06:22:00.176Z,23.15
2018-11-27T06:24:28.135Z,22.10
2018-11-27T06:26:56.195Z,22.22
2018-11-27T06:29:24.190Z,23.47
2018-11-27T06:31:52.206Z,24.10
2018-11-27T06:34:20.170Z,24.02
2018-11-27T06:36:48.166Z,24.75
2018-11-27T06:39:16.194Z,24.95
2018-11-27T06:41:44.296Z,24.72
2018-11-27T06:44:12.267Z,24.90
2018-11-27T06:46:40.229Z,24.15
2018-11-27T06:49:08.308Z,23.90
2018-11-27T06:51:36.264Z,24.72
2018-11-27T06:54:04.418Z,23.65
2018-11-27T06:56:32.407Z,25.05
2018-11-27T06:59:00.346Z,25.80
2018-11-27T07:01:28.311Z,25.57
2018-11-27T07:03:56.336Z,26.00
2018-11-27T07:06:24.317Z,26.17
2018-11-27T07:08:52.266Z,25.85
2018-11-27T07:11:20.233Z,25.60
2018-11-27T07:13:48.304Z,25.17
2018-11-27T07:16:16.276Z,26.12
2018-11-27T07:18:44.265Z,25.52
2018-11-27T07:21:12.215Z,25.65
2018-11-27T07:23:40.285Z,25.62
2018-11-27T07:26:08.230Z,26.15
2018-11-27T07:28:36.222Z,26.05
2018-11-27T07:31:05.314Z,25.55
2018-11-27T07:33:33.318Z,25.30
2018-11-27T07:36:01.283Z,27.00
2018-11-27T07:38:29.298Z,26.85
2018-11-27T07:40:57.344Z,27.60
2018-11-27T07:43:25.367Z,28.15
2018-11-27T07:45:55.341Z,26.87
2018-11-27T07:48:21.603Z,26.85
2018-11-27T07:50:49.663Z,26.33
2018-11-27T07:53:17.763Z,27.10
2018-11-27T07:55:45.731Z,27.37
2018-11-27T07:58:13.744Z,26.45
2018-11-27T08:00:41.691Z,28.40
2018-11-27T08:03:09.775Z,25.37
2018-11-27T08:05:39.156Z,24.82
2018-11-27T08:08:10.804Z,28.85
2018-11-27T08:10:38.761Z,26.85
2018-11-27T08:13:07.561Z,27.00
2018-11-27T08:15:35.521Z,28.10
2018-11-27T08:18:03.583Z,25.95
2018-11-27T08:20:32.477Z,26.45
2018-11-27T08:23:00.537Z,26.25
2018-11-27T08:25:28.528Z,26.48
2018-11-27T08:27:56.683Z,25.08
2018-11-27T08:30:24.977Z,26.23
2018-11-27T08:32:53.947Z,27.58
2018-11-27T08:35:23.076Z,25.85
2018-11-27T08:37:52.250Z,27.17
2018-11-27T08:40:21.374Z,27.52
2018-11-27T08:42:49.643Z,27.90
2018-11-27T08:45:18.621Z,27.70
2018-11-27T08:47:47.623Z,27.05
2018-11-27T08:50:16.727Z,27.40
2018-11-27T08:52:47.113Z,27.22
2018-11-27T08:55:22.372Z,31.35
2018-11-27T08:57:50.433Z,27.87
2018-11-27T09:00:19.352Z,27.52
2018-11-27T09:02:47.399Z,27.67
2018-11-27T09:05:15.531Z,30.12
2018-11-27T09:07:43.955Z,30.37
2018-11-27T09:10:13.589Z,28.50
2018-11-27T09:12:41.642Z,27.10
2018-11-27T09:15:11.256Z,30.25
2018-11-27T09:17:39.712Z,29.55
2018-11-27T09:20:09.455Z,28.17
2018-11-27T09:22:37.448Z,31.15
2018-11-27T09:25:07.830Z,27.15
2018-11-27T09:27:35.838Z,29.65
2018-11-27T09:30:05.915Z,30.27
2018-11-27T09:32:33.964Z,30.70
2018-11-27T09:35:02.032Z,30.72
2018-11-27T09:37:30.017Z,29.92
2018-11-27T09:39:58.102Z,32.48
2018-11-27T09:42:26.202Z,30.10
2018-11-27T09:44:54.175Z,28.45
2018-11-27T09:47:22.141Z,32.23
2018-11-27T09:49:50.251Z,31.90
2018-11-27T09:52:18.295Z,31.12
2018-11-27T09:54:46.257Z,32.28
2018-11-27T09:57:14.211Z,34.58
2018-11-27T09:59:42.215Z,32.78
2018-11-27T10:02:10.163Z,33.67
2018-11-27T10:04:38.151Z,30.95
2018-11-27T10:07:06.143Z,30.12
2018-11-27T10:09:34.106Z,32.35
2018-11-27T10:12:02.220Z,32.40
2018-11-27T10:14:30.159Z,31.50
2018-11-27T10:16:58.170Z,31.05
2018-11-27T10:19:27.604Z,29.50
2018-11-27T10:21:54.157Z,30.85
2018-11-27T10:24:22.121Z,32.05
2018-11-27T10:26:51.011Z,31.70
2018-11-27T10:29:18.958Z,31.12
2018-11-27T10:31:46.983Z,32.10
2018-11-27T10:34:15.029Z,30.85
2018-11-27T10:36:43.571Z,31.73
2018-11-27T10:39:11.069Z,32.08
2018-11-27T10:41:39.043Z,29.05
2018-11-27T10:44:07.020Z,31.23
2018-11-27T10:46:35.166Z,31.37
2018-11-27T10:49:03.268Z,32.42
2018-11-27T10:51:31.268Z,29.87
2018-11-27T10:53:59.291Z,30.60
2018-11-27T10:56:27.303Z,31.85
2018-11-27T10:58:55.277Z,31.25
2018-11-27T11:01:28.616Z,27.90
2018-11-27T11:03:56.716Z,29.35
2018-11-27T11:06:24.704Z,28.52
2018-11-27T11:08:52.728Z,27.80
2018-11-27T11:11:20.807Z,27.70
2018-11-27T11:13:48.821Z,25.80
2018-11-27T11:16:16.811Z,27.13
2018-11-27T11:18:44.767Z,27.02
2018-11-27T11:21:12.732Z,27.37
2018-11-27T11:23:40.834Z,27.15
2018-11-27T11:26:09.016Z,28.17
2018-11-27T11:28:36.995Z,27.65
2018-11-27T11:31:06.689Z,27.80
2018-11-27T11:33:33.960Z,27.13
2018-11-27T11:36:02.184Z,27.52
2018-11-27T11:38:30.163Z,26.90
2018-11-27T11:40:58.326Z,24.30
2018-11-27T11:43:26.431Z,26.17
2018-11-27T11:45:54.401Z,25.43
2018-11-27T11:48:22.383Z,25.52
2018-11-27T11:50:50.371Z,26.25
2018-11-27T11:53:19.139Z,24.65
2018-11-27T11:55:47.915Z,23.90
2018-11-27T11:58:15.992Z,24.30
2018-11-27T12:00:47.143Z,24.30
2018-11-27T12:03:15.135Z,24.15
2018-11-27T12:05:43.264Z,21.87
2018-11-27T12:08:11.218Z,22.55
2018-11-27T12:10:39.305Z,22.90
2018-11-27T12:13:08.456Z,24.85
2018-11-27T12:15:36.544Z,24.02
2018-11-27T12:18:04.763Z,22.80
2018-11-27T12:20:34.095Z,23.70
2018-11-27T12:23:02.318Z,22.58
2018-11-27T12:25:30.260Z,23.02
2018-11-27T12:27:58.363Z,23.62
2018-11-27T12:30:27.144Z,23.75
2018-11-27T12:32:55.111Z,22.25
2018-11-27T12:35:23.707Z,22.77
2018-11-27T12:37:52.038Z,22.13
2018-11-27T12:40:28.668Z,22.37
2018-11-27T12:42:57.283Z,20.92
2018-11-27T12:45:29.907Z,21.62
2018-11-27T12:47:58.947Z,21.10
2018-11-27T12:50:58.899Z,20.90
2018-11-27T12:53:26.988Z,21.07
2018-11-27T12:55:55.058Z,21.68
2018-11-27T12:58:23.184Z,20.62
2018-11-27T13:00:51.166Z,20.25
2018-11-27T13:03:19.131Z,21.77
2018-11-27T13:05:47.423Z,21.17
2018-11-27T13:08:18.694Z,20.60
2018-11-27T13:10:46.762Z,19.37
2018-11-27T13:13:14.761Z,18.80
2018-11-27T13:15:43.419Z,19.00
2018-11-27T13:18:11.491Z,20.25
2018-11-27T13:20:40.174Z,18.57
2018-11-27T13:23:08.673Z,17.23
2018-11-27T13:25:37.548Z,16.30
2018-11-27T13:28:07.071Z,16.70
2018-11-27T13:30:40.032Z,17.52
2018-11-27T13:33:13.039Z,15.60
2018-11-27T13:35:41.036Z,15.68
2018-11-27T13:38:09.025Z,16.42
2018-11-27T13:40:36.981Z,14.93
2018-11-27T13:43:06.452Z,14.23
2018-11-27T13:45:34.629Z,15.65
2018-11-27T13:48:02.690Z,16.30
2018-11-27T13:50:30.643Z,13.80
2018-11-27T13:52:58.848Z,13.25
2018-11-27T13:55:26.889Z,11.88
2018-11-27T13:57:55.084Z,14.28
2018-11-27T14:00:23.048Z,14.10
2018-11-27T14:02:52.555Z,13.58
2018-11-27T14:05:21.658Z,13.30
2018-11-27T14:07:49.635Z,14.43
2018-11-27T14:10:24.055Z,13.50
2018-11-27T14:12:52.164Z,11.90
2018-11-27T14:15:21.499Z,13.18
2018-11-27T14:17:50.172Z,13.83
2018-11-27T14:20:18.242Z,12.80
2018-11-27T14:22:47.281Z,13.00
2018-11-27T14:25:15.512Z,14.10
2018-11-27T14:27:43.928Z,11.55
2018-11-27T14:30:14.949Z,12.95
2018-11-27T14:32:43.000Z,13.43
2018-11-27T14:35:11.295Z,14.98
2018-11-27T14:37:39.328Z,13.25
2018-11-27T14:40:12.755Z,15.45
2018-11-27T14:42:40.712Z,14.18
2018-11-27T14:45:11.451Z,14.40
2018-11-27T14:47:39.560Z,13.55
2018-11-27T14:50:09.208Z,14.43
2018-11-27T14:52:37.360Z,14.73
2018-11-27T14:55:07.670Z,14.20
2018-11-27T14:57:35.675Z,15.05
2018-11-27T15:00:03.703Z,12.95
2018-11-27T15:02:31.693Z,13.62
2018-11-27T15:04:59.779Z,14.45
2018-11-27T15:07:27.727Z,13.72
2018-11-27T15:09:55.694Z,12.60
2018-11-27T15:12:23.658Z,15.15
2018-11-27T15:14:51.630Z,13.65
2018-11-27T15:17:19.617Z,13.50
2018-11-27T15:19:47.643Z,13.72
2018-11-27T15:22:15.613Z,14.10
2018-11-27T15:24:43.620Z,14.23
2018-11-27T15:27:11.563Z,13.68
2018-11-27T15:29:39.570Z,14.10
2018-11-27T15:32:07.552Z,14.33
2018-11-27T15:34:35.523Z,14.95
2018-11-27T15:37:03.509Z,14.60
2018-11-27T15:39:31.551Z,15.60
2018-11-27T15:41:59.531Z,16.17
2018-11-27T15:44:27.569Z,14.40
2018-11-27T15:46:55.726Z,16.35
2018-11-27T15:49:23.743Z,17.75
2018-11-27T15:51:51.736Z,16.52
2018-11-27T15:54:19.680Z,15.10
2018-11-27T15:56:47.665Z,16.57
2018-11-27T15:59:15.614Z,15.85
2018-11-27T16:01:43.687Z,17.00
2018-11-27T16:04:11.756Z,15.95
2018-11-27T16:06:39.755Z,15.85
2018-11-27T16:09:11.018Z,15.72
2018-11-27T16:11:39.332Z,16.00
2018-11-27T16:14:07.628Z,16.70
2018-11-27T16:16:35.715Z,15.28
2018-11-27T16:19:03.747Z,18.42
2018-11-27T16:21:31.691Z,17.87
2018-11-27T16:23:59.675Z,17.70
2018-11-27T16:26:27.782Z,17.42
2018-11-27T16:28:55.749Z,17.20
2018-11-27T16:31:23.727Z,17.05
2018-11-27T16:33:51.679Z,18.07
2018-11-27T16:36:19.751Z,17.20
2018-11-27T16:38:47.701Z,17.67
2018-11-27T16:41:15.698Z,18.00
2018-11-27T16:43:43.694Z,16.67
2018-11-27T16:46:11.932Z,17.00
2018-11-27T16:48:39.919Z,17.48
2018-11-27T16:51:08.011Z,16.65
2018-11-27T16:53:36.034Z,17.80
2018-11-27T16:56:04.014Z,17.60
2018-11-27T16:58:32.082Z,17.30
2018-11-27T17:01:00.076Z,16.37
2018-11-27T17:03:28.021Z,16.75
2018-11-27T17:05:56.016Z,18.12
2018-11-27T17:08:24.006Z,18.60
2018-11-27T17:10:51.994Z,19.25
2018-11-27T17:13:19.975Z,18.73
2018-11-27T17:15:48.327Z,17.62
2018-11-27T17:18:16.339Z,19.00
2018-11-27T17:20:45.260Z,18.73
2018-11-27T17:23:14.521Z,19.50
2018-11-27T17:25:42.497Z,15.75
2018-11-27T17:28:15.025Z,17.55
2018-11-27T17:30:53.324Z,19.15
2018-11-27T17:33:25.573Z,18.35
2018-11-27T17:35:53.528Z,17.77
2018-11-27T17:38:21.462Z,18.35
2018-11-27T17:40:49.466Z,18.57
2018-11-27T17:43:17.474Z,19.82
2018-11-27T17:45:45.486Z,18.32
2018-11-27T17:48:13.438Z,19.12
2018-11-27T17:50:41.473Z,17.45
2018-11-27T17:53:10.102Z,20.25
2018-11-27T17:55:38.096Z,18.07
2018-11-27T17:58:06.444Z,18.40
2018-11-27T18:00:34.436Z,18.20
2018-11-27T18:03:05.275Z,18.80
2018-11-27T18:05:33.190Z,19.32
2018-11-27T18:08:01.215Z,16.90
2018-11-27T18:10:29.174Z,19.20
2018-11-27T18:12:57.312Z,18.17
2018-11-27T18:15:25.291Z,18.73
2018-11-27T18:17:53.390Z,18.62
2018-11-27T18:20:21.394Z,18.75
2018-11-27T18:22:49.367Z,20.15
2018-11-27T18:25:18.556Z,18.82
2018-11-27T18:27:47.583Z,18.00
2018-11-27T18:30:16.448Z,19.62
2018-11-27T18:32:44.447Z,19.55
2018-11-27T18:35:14.567Z,18.95
2018-11-27T18:37:42.720Z,20.00
2018-11-27T18:40:11.682Z,19.73
2018-11-27T18:42:40.051Z,20.15
2018-11-27T18:45:15.041Z,19.02
2018-11-27T18:47:43.127Z,19.85
2018-11-27T18:50:11.656Z,21.85
2018-11-27T18:52:39.907Z,20.25
2018-11-27T18:55:09.312Z,19.10
2018-11-27T18:57:37.383Z,19.98
2018-11-27T19:00:15.826Z,19.70
2018-11-27T19:02:43.834Z,20.68
2018-11-27T19:05:11.856Z,19.27
2018-11-27T19:07:39.855Z,19.70
2018-11-27T19:10:09.853Z,20.00
2018-11-27T19:12:37.912Z,19.80
2018-11-27T19:15:09.852Z,20.17
2018-11-27T19:17:37.795Z,20.85
2018-11-27T19:20:10.301Z,20.48
2018-11-27T19:22:38.288Z,19.70
2018-11-27T19:25:08.090Z,18.27
2018-11-27T19:27:36.171Z,20.82
2018-11-27T19:30:07.791Z,20.30
2018-11-27T19:32:35.888Z,21.87
2018-11-27T19:35:03.878Z,18.90
2018-11-27T19:37:31.822Z,20.48
2018-11-27T19:39:59.790Z,20.48
2018-11-27T19:42:27.792Z,18.62
2018-11-27T19:44:55.801Z,22.30
2018-11-27T19:47:23.783Z,21.02
2018-11-27T19:49:51.810Z,21.60
2018-11-27T19:52:20.607Z,21.15
2018-11-27T19:54:48.600Z,23.45
2018-11-27T19:57:16.559Z,23.77
2018-11-27T19:59:44.527Z,23.60
2018-11-27T20:02:12.505Z,19.75
2018-11-27T20:04:40.618Z,23.62
2018-11-27T20:07:08.599Z,21.82
2018-11-27T20:09:36.606Z,23.50
2018-11-27T20:12:04.916Z,24.85
2018-11-27T20:14:32.991Z,24.18
2018-11-27T20:17:01.012Z,22.90
2018-11-27T20:19:29.018Z,24.85
2018-11-27T20:21:56.999Z,22.55
2018-11-27T20:24:25.070Z,23.22
2018-11-27T20:26:53.091Z,23.70
2018-11-27T20:29:21.132Z,24.20
2018-11-27T20:31:49.099Z,22.67
2018-11-27T20:34:17.180Z,23.30
2018-11-27T20:36:45.147Z,22.75
2018-11-27T20:39:13.261Z,23.95
2018-11-27T20:41:41.228Z,19.60
2018-11-27T20:44:09.247Z,23.62
2018-11-27T20:46:37.224Z,23.42
2018-11-27T20:49:06.083Z,22.82
2018-11-27T20:51:34.138Z,23.85
2018-11-27T20:54:02.162Z,24.18
2018-11-27T20:56:30.165Z,22.75
2018-11-27T20:58:58.182Z,22.32
2018-11-27T21:01:26.170Z,23.60
2018-11-27T21:03:54.141Z,23.05
2018-11-27T21:06:22.305Z,23.52
2018-11-27T21:08:50.419Z,23.27
2018-11-27T21:11:18.390Z,24.15
2018-11-27T21:13:46.382Z,23.95
2018-11-27T21:16:14.367Z,24.40
2018-11-27T21:18:42.351Z,24.45
2018-11-27T21:21:10.356Z,24.47
2018-11-27T21:23:38.333Z,23.92
2018-11-27T21:26:06.528Z,24.00
2018-11-27T21:28:34.743Z,26.20
2018-11-27T21:31:03.906Z,21.97
2018-11-27T21:33:31.924Z,26.17
2018-11-27T21:35:59.868Z,25.40
2018-11-27T21:38:27.889Z,26.33
2018-11-27T21:40:55.849Z,25.15
2018-11-27T21:43:23.916Z,24.52
2018-11-27T21:45:51.890Z,26.45
2018-11-27T21:48:19.985Z,24.85
2018-11-27T21:50:48.094Z,24.65
2018-11-27T21:53:16.408Z,25.00
2018-11-27T21:55:44.383Z,24.72
2018-11-27T21:58:12.448Z,24.10
2018-11-27T22:00:41.567Z,24.35
2018-11-27T22:03:10.543Z,24.82
2018-11-27T22:05:38.505Z,26.45
2018-11-27T22:08:07.388Z,23.95
2018-11-27T22:10:35.378Z,26.87
2018-11-27T22:13:03.372Z,25.35
2018-11-27T22:15:35.754Z,26.55
2018-11-27T22:18:04.800Z,25.00
2018-11-27T22:20:32.814Z,26.73
2018-11-27T22:23:00.842Z,26.25
2018-11-27T22:25:28.813Z,25.82
2018-11-27T22:27:56.807Z,27.35
2018-11-27T22:30:24.785Z,25.88
2018-11-27T22:32:54.396Z,26.23
2018-11-27T22:35:22.421Z,26.17
2018-11-27T22:37:50.390Z,26.50
2018-11-27T22:40:20.454Z,26.73
2018-11-27T22:42:49.220Z,25.72
2018-11-27T22:45:20.439Z,26.33
2018-11-27T22:47:48.399Z,26.75
2018-11-27T22:50:17.316Z,26.20
2018-11-27T22:52:45.284Z,24.50
2018-11-27T22:55:13.322Z,24.57
2018-11-27T22:57:41.539Z,26.33
2018-11-27T23:00:20.482Z,25.05
2018-11-27T23:02:48.939Z,26.37
2018-11-27T23:05:17.476Z,25.62
2018-11-27T23:07:45.471Z,28.45
2018-11-27T23:10:14.013Z,25.35
2018-11-27T23:12:42.004Z,26.75
2018-11-27T23:15:13.048Z,27.75
2018-11-27T23:17:41.035Z,24.23
2018-11-27T23:20:11.589Z,23.83
2018-11-27T23:22:39.634Z,26.05
2018-11-27T23:25:12.721Z,24.87
2018-11-27T23:27:40.803Z,24.80
2018-11-27T23:30:11.434Z,24.85
2018-11-27T23:32:39.626Z,24.95
2018-11-27T23:35:07.635Z,25.60
2018-11-27T23:37:35.707Z,25.97
2018-11-27T23:40:04.040Z,27.27
2018-11-27T23:42:31.995Z,26.10
2018-11-27T23:44:59.967Z,27.70
2018-11-27T23:47:27.937Z,26.45
2018-11-27T23:49:55.904Z,24.43
2018-11-27T23:52:23.899Z,27.30
2018-11-27T23:54:51.864Z,25.17
2018-11-27T23:57:19.984Z,27.22
2018-11-27T23:59:48.006Z,26.68
